Time;durP1;ratioP1;P1;durP2;ratioP2;P2;SDS_P1;SDS_P2;PMS_P1;PMS_P2;Temp;Humidity;BMP_temperature;BMP_pressure;BME280_temperature;BME280_humidity;BME280_pressure;Samples;Min_cycle;Max_cycle;Signal;HPM_P1;HPM_P2
2023/09/29 00:01:01;;;;;;;;;;;;;;;23.89;44.17;101237.25;7399780;19;1288;-37
2023/09/29 00:03:29;;;;;;;;;;;;;;;23.89;44.13;101229.16;7399804;19;1296;-37
2023/09/29 00:05:57;;;;;;;;;;;;;;;23.86;43.98;101227.63;7398007;19;2608;-37
2023/09/29 00:08:28;;;;;;;;;;;;;;;23.87;43.84;101228.47;7398764;19;1620;-37
2023/09/29 00:10:56;;;;;;;;;;;;;;;23.83;44.10;101217.13;7399946;19;1614;-37
2023/09/29 00:13:25;;;;;;;;;;;;;;;23.85;43.90;101239.41;7399655;19;1338;-37
2023/09/29 00:15:53;;;;;;;;;;;;;;;23.90;43.75;101238.97;7399021;19;1459;-39
2023/09/29 00:18:23;;;;;;;;;;;;;;;23.84;43.74;101224.22;7399031;19;1498;-37
2023/09/29 00:20:51;;;;;;;;;;;;;;;23.87;43.77;101229.31;7399161;19;1712;-37
2023/09/29 00:23:19;;;;;;;;;;;;;;;23.86;43.76;101218.69;7396202;19;1395;-37
2023/09/29 00:25:50;;;;;;;;;;;;;;;23.84;43.65;101239.59;7399059;19;1883;-37
2023/09/29 00:28:18;;;;;;;;;;;;;;;23.86;43.96;101237.59;7399652;19;1464;-37
2023/09/29 00:30:47;;;;;;;;;;;;;;;23.87;43.90;101244.66;7385311;19;1360;-37
2023/09/29 00:33:15;;;;;;;;;;;;;;;23.81;43.66;101254.25;7397587;19;1642;-37
2023/09/29 00:35:43;;;;;;;;;;;;;;;23.82;43.53;101251.38;7399104;19;1522;-37
2023/09/29 00:38:12;;;;;;;;;;;;;;;23.82;43.78;101242.44;7398511;19;1400;-37
2023/09/29 00:40:41;;;;;;;;;;;;;;;23.85;43.76;101244.81;7399169;19;1606;-37
2023/09/29 00:43:15;;;;;;;;;;;;;;;23.82;43.87;101243.28;7398743;19;1633;-37
2023/09/29 00:45:43;;;;;;;;;;;;;;;23.79;43.82;101229.25;7398662;19;1810;-37
2023/09/29 00:48:12;;;;;;;;;;;;;;;23.82;43.84;101221.69;7394239;19;1863;-37
2023/09/29 00:50:41;;;;;;;;;;;;;;;23.82;43.59;101237.88;7399382;19;1621;-37
2023/09/29 00:53:11;;;;;;;;;;;;;;;23.80;43.57;101229.09;7397873;19;1530;-37
2023/09/29 00:55:41;;;;;;;;;;;;;;;23.79;43.83;101224.69;7398318;19;1399;-37
2023/09/29 00:58:13;;;;;;;;;;;;;;;23.80;43.67;101239.06;7398047;19;1368;-37
2023/09/29 01:00:42;;;;;;;;;;;;;;;23.82;43.80;101242.44;7397801;19;1253;-37
2023/09/29 01:03:12;;;;;;;;;;;;;;;23.79;43.59;101234.63;7396501;19;1740;-37
2023/09/29 01:05:42;;;;;;;;;;;;;;;23.81;43.60;101233.50;7396824;19;1554;-37
2023/09/29 01:08:12;;;;;;;;;;;;;;;23.86;43.37;101238.44;7395383;19;1841;-37
2023/09/29 01:10:41;;;;;;;;;;;;;;;23.80;43.42;101233.66;7398558;19;1471;-37
2023/09/29 01:13:12;;;;;;;;;;;;;;;23.78;43.64;101233.81;7396815;19;1538;-37
2023/09/29 01:15:40;;;;;;;;;;;;;;;23.79;43.60;101258.94;7396506;19;1652;-37
2023/09/29 01:18:09;;;;;;;;;;;;;;;23.78;43.67;101241.06;7397067;19;1392;-37
2023/09/29 01:20:40;;;;;;;;;;;;;;;23.78;43.54;101251.88;7396551;19;1550;-37
2023/09/29 01:23:08;;;;;;;;;;;;;;;23.81;43.63;101251.53;7396855;19;1444;-37
2023/09/29 01:25:39;;;;;;;;;;;;;;;23.74;43.50;101240.47;7397929;19;1589;-37
2023/09/29 01:28:10;;;;;;;;;;;;;;;23.74;43.66;101245.88;7395277;19;1845;-37
2023/09/29 01:30:40;;;;;;;;;;;;;;;23.77;43.61;101256.38;7382083;19;1232;-37
2023/09/29 01:33:08;;;;;;;;;;;;;;;23.72;43.68;101247.06;7395634;19;1554;-37
2023/09/29 01:35:37;;;;;;;;;;;;;;;23.76;43.67;101254.69;7396056;19;1525;-38
2023/09/29 01:38:05;;;;;;;;;;;;;;;23.78;43.66;101252.72;7397551;19;1415;-37
2023/09/29 01:40:34;;;;;;;;;;;;;;;23.76;43.18;101251.13;7396424;19;1606;-37
2023/09/29 01:43:06;;;;;;;;;;;;;;;23.75;43.32;101252.97;7394756;19;1531;-37
2023/09/29 01:45:34;;;;;;;;;;;;;;;23.75;43.46;101260.22;7395892;19;1478;-37
2023/09/29 01:48:03;;;;;;;;;;;;;;;23.68;43.66;101251.91;7393648;19;1836;-37
2023/09/29 01:50:32;;;;;;;;;;;;;;;23.71;43.47;101270.47;7395873;19;1391;-37
2023/09/29 01:53:01;;;;;;;;;;;;;;;23.73;43.24;101281.13;7396489;19;1535;-38
2023/09/29 01:55:30;;;;;;;;;;;;;;;23.68;43.40;101261.88;7396327;19;1708;-37
2023/09/29 01:57:58;;;;;;;;;;;;;;;23.64;43.36;101274.81;7395242;19;1777;-37
2023/09/29 02:00:30;;;;;;;;;;;;;;;23.66;43.50;101269.28;7395352;19;1482;-37
2023/09/29 02:02:58;;;;;;;;;;;;;;;23.73;43.40;101284.69;7396556;19;1363;-37
2023/09/29 02:05:26;;;;;;;;;;;;;;;23.68;43.65;101268.09;7395202;19;1452;-37
2023/09/29 02:07:55;;;;;;;;;;;;;;;23.68;43.34;101273.50;7393956;19;1838;-37
2023/09/29 02:10:24;;;;;;;;;;;;;;;23.71;43.19;101273.19;7395055;19;1352;-37
2023/09/29 02:12:56;;;;;;;;;;;;;;;23.72;42.28;101269.50;7394791;19;1385;-37
2023/09/29 02:15:25;;;;;;;;;;;;;;;23.53;40.51;101256.97;7395423;19;1860;-37
2023/09/29 02:17:57;;;;;;;;;;;;;;;23.54;40.40;101260.56;7395095;19;1664;-37
2023/09/29 02:20:39;;;;;;;;;;;;;;;23.50;40.28;101262.72;7394293;19;1348;-37
2023/09/29 02:23:08;;;;;;;;;;;;;;;23.51;40.36;101271.66;7395455;19;1624;-37
2023/09/29 02:25:36;;;;;;;;;;;;;;;23.38;40.05;101270.19;7396800;19;1460;-37
2023/09/29 02:28:05;;;;;;;;;;;;;;;23.35;39.96;101262.38;7393676;19;1842;-37
2023/09/29 02:30:33;;;;;;;;;;;;;;;23.22;39.20;101283.50;7380846;19;1712;-37
2023/09/29 02:33:04;;;;;;;;;;;;;;;23.07;39.21;101282.28;7396224;19;1511;-37
2023/09/29 02:35:33;;;;;;;;;;;;;;;22.95;39.33;101277.03;7396243;19;1359;-37
2023/09/29 02:38:01;;;;;;;;;;;;;;;22.92;39.28;101281.88;7392912;19;1376;-38
2023/09/29 02:40:30;;;;;;;;;;;;;;;22.96;39.44;101291.38;7395007;19;1531;-37
2023/09/29 02:42:58;;;;;;;;;;;;;;;22.91;39.02;101291.00;7395062;19;1209;-38
2023/09/29 02:45:27;;;;;;;;;;;;;;;22.80;39.22;101278.53;7392856;19;1998;-37
2023/09/29 02:47:55;;;;;;;;;;;;;;;22.78;39.08;101296.69;7394239;19;1841;-38
2023/09/29 02:50:27;;;;;;;;;;;;;;;22.77;39.43;101313.88;7391829;19;1870;-38
2023/09/29 02:52:56;;;;;;;;;;;;;;;22.75;39.64;101287.06;7393189;19;1566;-38
2023/09/29 02:55:27;;;;;;;;;;;;;;;22.76;39.64;101291.47;7394691;19;1533;-37
2023/09/29 02:57:55;;;;;;;;;;;;;;;22.79;39.55;101290.31;7394989;19;1470;-37
2023/09/29 03:00:27;;;;;;;;;;;;;;;22.78;39.81;101292.19;7394581;19;1707;-37
2023/09/29 03:02:55;;;;;;;;;;;;;;;22.70;39.03;101288.50;7394531;19;1539;-38
2023/09/29 03:05:26;;;;;;;;;;;;;;;22.60;39.13;101299.31;7393238;19;1600;-37
2023/09/29 03:07:55;;;;;;;;;;;;;;;22.55;39.15;101307.84;7391130;19;1881;-37
2023/09/29 03:10:25;;;;;;;;;;;;;;;22.58;39.44;101302.19;7394249;19;1653;-37
2023/09/29 03:12:56;;;;;;;;;;;;;;;22.61;39.25;101301.88;7390804;19;1401;-37
2023/09/29 03:15:24;;;;;;;;;;;;;;;22.63;39.00;101297.19;7392933;19;1339;-37
2023/09/29 03:17:55;;;;;;;;;;;;;;;22.53;38.97;101293.66;7392138;19;1515;-37
2023/09/29 03:20:27;;;;;;;;;;;;;;;22.49;38.94;101291.44;7392552;19;1687;-37
2023/09/29 03:22:55;;;;;;;;;;;;;;;22.43;38.73;101301.78;7395765;19;1578;-37
2023/09/29 03:25:23;;;;;;;;;;;;;;;21.85;39.17;101197.66;7401163;19;1419;-37
2023/09/29 03:27:51;;;;;;;;;;;;;;;22.49;39.37;101302.19;7399828;19;1842;-37
2023/09/29 03:30:21;;;;;;;;;;;;;;;22.50;39.16;101296.66;7385024;19;1384;-37
2023/09/29 03:32:52;;;;;;;;;;;;;;;22.49;39.00;101296.81;7401334;19;1551;-37
2023/09/29 03:35:20;;;;;;;;;;;;;;;22.43;38.85;101314.41;7400437;19;1446;-37
2023/09/29 03:37:51;;;;;;;;;;;;;;;22.48;39.07;101304.03;7401197;19;1473;-37
2023/09/29 03:40:19;;;;;;;;;;;;;;;22.46;38.95;101303.31;7400088;19;1287;-37
2023/09/29 03:42:47;;;;;;;;;;;;;;;22.50;38.77;101303.88;7400061;19;1367;-37
2023/09/29 03:45:16;;;;;;;;;;;;;;;22.74;40.03;101295.28;7399353;19;1241;-37
2023/09/29 03:47:46;;;;;;;;;;;;;;;22.98;40.34;101301.03;7398063;19;1839;-37
2023/09/29 03:50:15;;;;;;;;;;;;;;;23.15;40.96;101310.19;6885607;19;10000059;-37
2023/09/29 03:52:45;;;;;;;;;;;;;;;23.27;41.07;101307.31;7386624;19;1588;-37
2023/09/29 03:55:17;;;;;;;;;;;;;;;23.39;41.18;101306.94;7394356;19;1173;-37
2023/09/29 03:57:45;;;;;;;;;;;;;;;23.32;41.72;101292.38;7391914;19;1852;-37
2023/09/29 04:00:16;;;;;;;;;;;;;;;23.26;40.36;101311.88;7394313;19;1484;-37
2023/09/29 04:02:45;;;;;;;;;;;;;;;23.13;40.93;101297.88;7391333;19;1719;-37
2023/09/29 04:05:15;;;;;;;;;;;;;;;23.26;41.23;101305.59;7393215;19;1582;-37
2023/09/29 04:07:43;;;;;;;;;;;;;;;23.45;41.24;101302.78;7391042;19;1861;-37
2023/09/29 04:10:12;;;;;;;;;;;;;;;23.47;41.63;101294.53;7391112;19;1919;-37
2023/09/29 04:12:44;;;;;;;;;;;;;;;23.47;41.82;101297.25;7392004;19;1590;-37
2023/09/29 04:15:13;;;;;;;;;;;;;;;23.47;41.91;101303.50;7390539;19;1425;-37
2023/09/29 04:17:41;;;;;;;;;;;;;;;23.48;41.86;101307.06;7392650;19;1563;-37
2023/09/29 04:20:10;;;;;;;;;;;;;;;23.50;42.12;101292.41;7392730;19;1608;-37
2023/09/29 04:22:38;;;;;;;;;;;;;;;23.51;42.22;101304.03;7392061;19;1453;-37
2023/09/29 04:25:10;;;;;;;;;;;;;;;22.95;42.27;101206.09;7398169;19;1335;-37
2023/09/29 04:27:38;;;;;;;;;;;;;;;23.51;42.28;101304.03;7395756;19;1846;-37
2023/09/29 04:30:12;;;;;;;;;;;;;;;23.36;43.03;101318.06;7399648;19;1349;-37
2023/09/29 04:32:40;;;;;;;;;;;;;;;23.45;42.77;101304.66;7390768;19;1406;-37
2023/09/29 04:35:10;;;;;;;;;;;;;;;23.46;42.84;101306.34;7392984;19;1325;-37
2023/09/29 04:37:38;;;;;;;;;;;;;;;23.47;42.61;101286.44;7396195;19;1244;-37
2023/09/29 04:40:07;;;;;;;;;;;;;;;23.61;42.85;101310.22;7396945;19;1317;-37
2023/09/29 04:42:35;;;;;;;;;;;;;;;23.61;42.79;101310.22;7395875;19;1462;-37
2023/09/29 04:45:04;;;;;;;;;;;;;;;23.68;42.75;101322.13;7396865;19;1329;-37
2023/09/29 04:47:35;;;;;;;;;;;;;;;23.83;42.87;101314.34;7396965;19;1850;-37
2023/09/29 04:50:05;;;;;;;;;;;;;;;23.85;42.52;101322.31;7394781;19;1416;-37
2023/09/29 04:52:33;;;;;;;;;;;;;;;23.90;42.58;101320.00;7396713;19;1418;-37
2023/09/29 04:55:01;;;;;;;;;;;;;;;23.79;42.98;101324.59;7397762;19;1443;-37
2023/09/29 04:57:30;;;;;;;;;;;;;;;23.75;43.05;101317.78;7394901;19;1146;-37
2023/09/29 04:59:58;;;;;;;;;;;;;;;23.76;43.06;101322.19;7396438;19;1427;-37
2023/09/29 05:02:29;;;;;;;;;;;;;;;23.75;43.03;101325.88;7395330;19;1352;-37
2023/09/29 05:05:00;;;;;;;;;;;;;;;23.73;43.47;101335.16;7397398;19;1450;-37
2023/09/29 05:07:28;;;;;;;;;;;;;;;23.77;43.50;101331.13;7394280;19;1847;-37
2023/09/29 05:09:56;;;;;;;;;;;;;;;23.87;43.50;101336.50;7395125;19;1472;-37
2023/09/29 05:12:24;;;;;;;;;;;;;;;23.92;43.28;101323.41;7394929;19;1332;-37
2023/09/29 05:14:53;;;;;;;;;;;;;;;24.16;43.21;101323.59;7396710;19;1335;-37
2023/09/29 05:17:21;;;;;;;;;;;;;;;24.36;42.68;101326.13;7396534;19;1582;-38
2023/09/29 05:19:49;;;;;;;;;;;;;;;24.51;42.34;101335.41;7396586;19;1529;-38
2023/09/29 05:22:21;;;;;;;;;;;;;;;24.49;42.49;101337.38;7397244;19;1649;-37
2023/09/29 05:24:49;;;;;;;;;;;;;;;24.15;43.10;101330.03;7397005;19;1522;-37
2023/09/29 05:27:17;;;;;;;;;;;;;;;24.20;43.39;101343.91;7390798;19;1606;-37
2023/09/29 05:29:46;;;;;;;;;;;;;;;24.17;43.00;101330.72;7390966;19;1839;-37
2023/09/29 05:32:14;;;;;;;;;;;;;;;23.99;43.74;101341.53;7381707;19;1567;-37
2023/09/29 05:34:43;;;;;;;;;;;;;;;24.15;43.86;101338.13;7396973;19;1624;-37
2023/09/29 05:37:11;;;;;;;;;;;;;;;24.10;43.59;101329.63;7396095;19;1404;-37
2023/09/29 05:39:43;;;;;;;;;;;;;;;24.32;43.61;101341.81;7392942;19;1308;-37
2023/09/29 05:42:12;;;;;;;;;;;;;;;24.38;43.82;101340.34;7396213;19;1529;-37
2023/09/29 05:44:40;;;;;;;;;;;;;;;24.37;43.98;101338.63;7394742;19;1775;-37
2023/09/29 05:47:08;;;;;;;;;;;;;;;24.59;43.34;101331.88;7394830;19;1527;-38
2023/09/29 05:49:37;;;;;;;;;;;;;;;24.55;43.77;101342.19;7394825;19;1838;-38
2023/09/29 05:52:05;;;;;;;;;;;;;;;24.48;44.14;101351.88;7395596;19;1593;-37
2023/09/29 05:54:33;;;;;;;;;;;;;;;24.49;43.69;101333.81;7395429;19;1667;-38
2023/09/29 05:57:04;;;;;;;;;;;;;;;24.18;44.46;101335.09;7391993;19;1483;-37
2023/09/29 05:59:33;;;;;;;;;;;;;;;24.57;43.99;101355.53;7395132;19;1376;-37
2023/09/29 06:02:01;;;;;;;;;;;;;;;24.60;44.43;101339.00;7395290;19;1266;-37
2023/09/29 06:04:29;;;;;;;;;;;;;;;24.60;44.22;101349.81;7395594;19;1616;-37
2023/09/29 06:06:57;;;;;;;;;;;;;;;24.60;43.57;101345.25;7393757;19;1310;-37
2023/09/29 06:09:26;;;;;;;;;;;;;;;24.61;43.70;101349.66;7393054;19;1859;-37
2023/09/29 06:11:54;;;;;;;;;;;;;;;24.56;43.87;101353.84;7388686;19;1410;-37
2023/09/29 06:14:25;;;;;;;;;;;;;;;24.54;44.24;101350.44;7394372;19;1767;-37
2023/09/29 06:16:53;;;;;;;;;;;;;;;24.68;43.65;101363.38;7394551;19;1566;-37
2023/09/29 06:19:22;;;;;;;;;;;;;;;24.67;44.06;101360.84;7395186;19;1470;-38
2023/09/29 06:21:50;;;;;;;;;;;;;;;24.56;44.45;101365.50;7394223;19;1530;-37
2023/09/29 06:24:18;;;;;;;;;;;;;;;24.63;44.03;101354.91;7393907;19;1486;-37
2023/09/29 06:26:47;;;;;;;;;;;;;;;24.75;43.74;101377.09;7393368;19;1423;-37
2023/09/29 06:29:15;;;;;;;;;;;;;;;24.58;43.85;101366.19;7392673;19;1858;-37
2023/09/29 06:31:46;;;;;;;;;;;;;;;24.69;43.01;101367.81;7378713;19;1697;-38
2023/09/29 06:34:14;;;;;;;;;;;;;;;24.82;42.97;101364.66;7394749;19;1355;-37
2023/09/29 06:36:42;;;;;;;;;;;;;;;24.92;43.88;101370.81;7394368;19;1344;-37
2023/09/29 06:39:12;;;;;;;;;;;;;;;24.94;43.69;101360.66;7396087;19;1628;-38
2023/09/29 06:41:40;;;;;;;;;;;;;;;24.96;43.84;101355.09;7396677;19;1435;-37
2023/09/29 06:44:08;;;;;;;;;;;;;;;24.77;43.75;101366.97;7395373;19;1351;-37
2023/09/29 06:46:37;;;;;;;;;;;;;;;24.67;43.58;101353.59;7393305;19;2469;-37
2023/09/29 06:49:08;;;;;;;;;;;;;;;24.79;42.87;101348.75;7391825;19;1853;-37
2023/09/29 06:51:37;;;;;;;;;;;;;;;24.81;43.15;101350.28;7395367;19;1462;-37
2023/09/29 06:54:05;;;;;;;;;;;;;;;25.00;43.68;101354.59;7394231;19;1247;-37
2023/09/29 06:56:33;;;;;;;;;;;;;;;24.92;43.72;101354.56;7395073;19;1633;-37
2023/09/29 06:59:02;;;;;;;;;;;;;;;25.00;43.58;101362.72;7401768;19;1395;-37
2023/09/29 07:01:30;;;;;;;;;;;;;;;24.68;44.87;101357.13;7402883;19;1448;-38
2023/09/29 07:03:58;;;;;;;;;;;;;;;24.82;44.38;101353.84;7403557;19;1506;-37
2023/09/29 07:06:29;;;;;;;;;;;;;;;24.71;45.15;101373.03;7401326;19;1566;-37
2023/09/29 07:08:58;;;;;;;;;;;;;;;24.65;45.22;101365.56;7400123;19;1862;-37
2023/09/29 07:11:27;;;;;;;;;;;;;;;24.64;45.58;101355.75;7401632;19;1419;-37
2023/09/29 07:13:55;;;;;;;;;;;;;;;24.78;44.88;101360.56;7400740;19;1392;-37
2023/09/29 07:16:23;;;;;;;;;;;;;;;24.76;45.10;101373.41;7398146;19;1443;-37
2023/09/29 07:18:52;;;;;;;;;;;;;;;24.70;44.99;101377.59;7401725;19;1355;-37
2023/09/29 07:21:20;;;;;;;;;;;;;;;24.67;45.18;101366.25;7402732;19;1384;-37
2023/09/29 07:23:51;;;;;;;;;;;;;;;24.72;44.85;101348.53;7402423;19;1346;-37
2023/09/29 07:26:20;;;;;;;;;;;;;;;24.97;45.03;101367.63;7403630;19;1385;-37
2023/09/29 07:28:48;;;;;;;;;;;;;;;24.87;45.11;101351.50;7394042;19;1849;-38
2023/09/29 07:31:17;;;;;;;;;;;;;;;24.84;45.11;101362.63;7384811;19;1556;-37
2023/09/29 07:33:45;;;;;;;;;;;;;;;25.01;44.66;101364.44;7399713;19;1482;-37
2023/09/29 07:36:14;;;;;;;;;;;;;;;24.90;44.94;101362.00;7400414;19;1652;-38
2023/09/29 07:38:42;;;;;;;;;;;;;;;24.85;45.06;101352.66;7401283;19;1660;-37
2023/09/29 07:41:13;;;;;;;;;;;;;;;24.84;46.16;101354.53;7399360;19;1656;-37
2023/09/29 07:43:43;;;;;;;;;;;;;;;24.88;45.64;101357.75;7399557;19;1471;-37
2023/09/29 07:46:12;;;;;;;;;;;;;;;24.89;46.00;101354.91;7399992;19;1372;-37
2023/09/29 07:48:41;;;;;;;;;;;;;;;24.87;46.62;101356.06;7399009;19;1858;-37
2023/09/29 07:51:09;;;;;;;;;;;;;;;24.94;45.84;101365.25;7399258;19;1364;-37
2023/09/29 07:53:38;;;;;;;;;;;;;;;24.94;46.04;101354.41;7398779;19;1384;-38
2023/09/29 07:56:07;;;;;;;;;;;;;;;24.90;45.52;101345.75;7398477;19;1400;-37
2023/09/29 07:58:38;;;;;;;;;;;;;;;24.87;46.75;101348.81;7400133;19;1437;-38
2023/09/29 08:01:07;;;;;;;;;;;;;;;24.99;46.14;101347.53;7399008;19;1518;-37
2023/09/29 08:03:35;;;;;;;;;;;;;;;24.80;46.46;101350.44;7399804;19;1528;-38
2023/09/29 08:06:04;;;;;;;;;;;;;;;24.72;46.73;101340.41;7400977;19;1659;-38
2023/09/29 08:08:32;;;;;;;;;;;;;;;24.64;46.99;101339.53;7397729;19;1839;-37
2023/09/29 08:11:00;;;;;;;;;;;;;;;24.83;46.24;101350.13;7399697;19;1495;-38
2023/09/29 08:13:29;;;;;;;;;;;;;;;24.97;46.16;101344.13;7398092;19;1569;-38
2023/09/29 08:15:59;;;;;;;;;;;;;;;25.07;45.86;101362.94;7399344;19;1685;-38
2023/09/29 08:18:28;;;;;;;;;;;;;;;24.95;46.25;101340.72;7398051;19;1694;-37
2023/09/29 08:20:57;;;;;;;;;;;;;;;24.86;46.29;101338.13;7398554;19;1486;-38
2023/09/29 08:23:30;;;;;;;;;;;;;;;24.78;46.79;101333.53;7398986;19;1399;-37
2023/09/29 08:25:58;;;;;;;;;;;;;;;24.83;46.31;101336.63;7400204;19;1406;-37
2023/09/29 08:28:26;;;;;;;;;;;;;;;24.78;46.27;101347.06;7400176;19;1431;-38
2023/09/29 08:30:55;;;;;;;;;;;;;;;24.73;46.31;101355.66;7397249;19;1861;-38
2023/09/29 08:33:27;;;;;;;;;;;;;;;24.83;46.30;101344.72;7386883;19;1489;-38
2023/09/29 08:35:56;;;;;;;;;;;;;;;24.75;46.33;101341.94;7400710;19;1671;-38
2023/09/29 08:38:24;;;;;;;;;;;;;;;24.75;46.55;101336.53;7399803;19;1661;-39
2023/09/29 08:40:55;;;;;;;;;;;;;;;24.82;46.57;101334.91;7398508;19;1640;-37
2023/09/29 08:43:23;;;;;;;;;;;;;;;24.82;46.79;101337.59;7396986;19;1270;-38
2023/09/29 08:45:52;;;;;;;;;;;;;;;24.90;47.10;101334.94;7398663;19;1302;-37
2023/09/29 08:48:21;;;;;;;;;;;;;;;24.77;47.02;101329.97;7398715;19;1685;-38
2023/09/29 08:50:55;;;;;;;;;;;;;;;24.83;46.52;101335.75;7395673;19;1854;-37
2023/09/29 08:53:25;;;;;;;;;;;;;;;24.94;46.52;101328.19;7398551;19;1545;-37
2023/09/29 08:55:54;;;;;;;;;;;;;;;25.09;45.83;101339.28;7394965;19;1487;-38
2023/09/29 08:58:23;;;;;;;;;;;;;;;25.04;46.16;101330.78;7397955;19;1407;-37
2023/09/29 09:00:51;;;;;;;;;;;;;;;24.97;46.39;101336.00;7397259;19;1549;-38
2023/09/29 09:03:20;;;;;;;;;;;;;;;24.96;47.02;101333.47;7394829;19;1315;-37
2023/09/29 09:05:49;;;;;;;;;;;;;;;24.91;47.64;101330.38;7396019;19;1519;-37
2023/09/29 09:08:20;;;;;;;;;;;;;;;25.01;47.27;101342.78;7397829;19;1368;-37
2023/09/29 09:10:48;;;;;;;;;;;;;;;24.78;48.17;101325.41;7397275;19;1857;-38
2023/09/29 09:13:20;;;;;;;;;;;;;;;24.82;48.34;101324.09;7393491;19;1459;-37
2023/09/29 09:15:56;;;;;;;;;;;;;;;24.91;47.88;101336.66;7396427;19;1430;-37
2023/09/29 09:18:27;;;;;;;;;;;;;;;24.95;48.75;101316.38;7395842;19;1475;-37
2023/09/29 09:20:55;;;;;;;;;;;;;;;24.85;49.87;101315.66;7396110;19;1760;-37
2023/09/29 09:23:26;;;;;;;;;;;;;;;24.87;50.61;101310.94;7395445;19;1632;-37
2023/09/29 09:25:55;;;;;;;;;;;;;;;24.83;50.05;101312.28;7396204;19;1523;-37
2023/09/29 09:28:26;;;;;;;;;;;;;;;24.84;49.02;101324.78;7395764;19;1492;-37
2023/09/29 09:31:02;;;;;;;;;;;;;;;24.75;49.51;101320.31;7395311;19;1867;-37
2023/09/29 09:33:31;;;;;;;;;;;;;;;24.79;49.62;101310.91;7382521;19;1576;-37
2023/09/29 09:36:05;;;;;;;;;;;;;;;25.02;49.31;101313.88;7396298;19;2584;-37
2023/09/29 09:38:36;;;;;;;;;;;;;;;24.89;50.02;101313.47;7397515;19;1783;-37
2023/09/29 09:41:05;;;;;;;;;;;;;;;24.90;49.39;101307.88;7395905;19;1832;-37
2023/09/29 09:43:35;;;;;;;;;;;;;;;24.97;49.07;101303.53;7394924;19;1403;-37
2023/09/29 09:46:12;;;;;;;;;;;;;;;25.05;49.09;101307.28;7395442;19;1624;-37
2023/09/29 09:48:50;;;;;;;;;;;;;;;25.04;48.93;101313.72;7395065;19;1379;-36
2023/09/29 09:51:28;;;;;;;;;;;;;;;25.18;48.33;101296.84;7395065;19;1839;-37
2023/09/29 09:54:02;;;;;;;;;;;;;;;25.13;49.33;101288.38;7396548;19;1191;-37
2023/09/29 09:56:32;;;;;;;;;;;;;;;25.13;48.88;101310.03;7397382;19;1660;-37
2023/09/29 09:59:05;;;;;;;;;;;;;;;25.18;48.74;101296.84;7396519;19;1589;-37
2023/09/29 10:01:33;;;;;;;;;;;;;;;25.01;50.02;101277.84;7394745;19;1352;-37
2023/09/29 10:04:04;;;;;;;;;;;;;;;25.09;49.72;101289.69;7394697;19;1293;-37
2023/09/29 10:06:33;;;;;;;;;;;;;;;25.18;48.94;101304.97;7394064;19;1670;-37
2023/09/29 10:09:09;;;;;;;;;;;;;;;25.20;49.00;101284.00;7394222;19;1325;-37
2023/09/29 10:11:37;;;;;;;;;;;;;;;25.29;48.77;101296.59;7395848;19;1339;-37
2023/09/29 10:14:07;;;;;;;;;;;;;;;25.27;49.28;101284.22;7394975;19;1744;-37
2023/09/29 10:16:36;;;;;;;;;;;;;;;25.25;48.92;101284.41;7394992;19;1353;-36
2023/09/29 10:19:06;;;;;;;;;;;;;;;25.17;48.72;101270.81;7394208;19;1295;-37
2023/09/29 10:21:43;;;;;;;;;;;;;;;25.02;49.74;101273.28;7396162;19;1614;-37
2023/09/29 10:24:17;;;;;;;;;;;;;;;25.19;49.26;101275.03;7395313;19;1317;-37
2023/09/29 10:26:46;;;;;;;;;;;;;;;25.14;49.22;101276.53;7396744;19;1609;-37
2023/09/29 10:29:21;;;;;;;;;;;;;;;25.14;49.91;101271.13;7395765;19;1850;-36
2023/09/29 10:31:51;;;;;;;;;;;;;;;25.16;49.76;101264.53;7383797;19;1649;-37
2023/09/29 10:34:24;;;;;;;;;;;;;;;25.09;49.97;101260.81;7395283;19;1557;-36
2023/09/29 10:36:56;;;;;;;;;;;;;;;25.12;50.02;101243.38;7395702;19;1343;-37
2023/09/29 10:39:30;;;;;;;;;;;;;;;25.25;49.31;101246.50;7394413;19;1437;-37
2023/09/29 10:41:59;;;;;;;;;;;;;;;25.19;49.26;101268.78;7394837;19;1320;-37
2023/09/29 10:44:29;;;;;;;;;;;;;;;25.14;49.42;101236.78;7393694;19;1407;-37
2023/09/29 10:46:57;;;;;;;;;;;;;;;25.19;49.72;101236.31;7394379;19;1341;-37
2023/09/29 10:49:33;;;;;;;;;;;;;;;25.15;49.85;101234.94;7393373;19;1853;-37
2023/09/29 10:52:02;;;;;;;;;;;;;;;25.19;49.52;101230.91;7394828;19;1272;-37
2023/09/29 10:54:33;;;;;;;;;;;;;;;25.19;50.39;101234.44;7392275;19;2051;-37
2023/09/29 10:57:02;;;;;;;;;;;;;;;25.23;49.91;101226.88;7396750;19;1210;-37
2023/09/29 10:59:30;;;;;;;;;;;;;;;25.20;49.93;101232.56;7394541;19;1408;-37
2023/09/29 11:01:59;;;;;;;;;;;;;;;25.18;50.31;101224.59;7395528;19;1415;-37
2023/09/29 11:04:27;;;;;;;;;;;;;;;25.30;49.90;101210.81;7392585;19;1585;-37
2023/09/29 11:06:55;;;;;;;;;;;;;;;25.38;49.47;101217.06;7388940;19;1576;-37
2023/09/29 11:09:28;;;;;;;;;;;;;;;25.42;49.52;101219.44;7393747;19;1845;-37
2023/09/29 11:11:59;;;;;;;;;;;;;;;25.44;49.44;101203.88;7392140;19;1423;-37
2023/09/29 11:14:38;;;;;;;;;;;;;;;25.45;49.32;101208.31;7393414;19;1672;-37
2023/09/29 11:17:06;;;;;;;;;;;;;;;25.46;49.09;101200.00;7394866;19;1616;-37
2023/09/29 11:19:36;;;;;;;;;;;;;;;25.37;49.72;101201.84;7392367;19;1316;-37
2023/09/29 11:22:05;;;;;;;;;;;;;;;25.38;49.93;101194.56;7394118;19;1711;-37
2023/09/29 11:24:42;;;;;;;;;;;;;;;25.32;50.08;101195.25;7392255;19;1719;-37
2023/09/29 11:27:14;;;;;;;;;;;;;;;25.36;49.51;101173.06;7390744;19;1443;-37
2023/09/29 11:29:43;;;;;;;;;;;;;;;25.36;49.75;101189.31;7387272;19;1844;-37
2023/09/29 11:32:12;;;;;;;;;;;;;;;25.36;50.06;101185.78;7377298;19;2364;-37
2023/09/29 11:34:41;;;;;;;;;;;;;;;25.22;50.07;101187.28;7392951;19;1562;-37
2023/09/29 11:37:09;;;;;;;;;;;;;;;25.30;49.42;101168.34;7392538;19;1379;-37
2023/09/29 11:39:37;;;;;;;;;;;;;;;25.54;48.54;101180.19;7393770;19;1593;-37
2023/09/29 11:42:06;;;;;;;;;;;;;;;25.49;48.78;101171.75;7394170;19;1299;-37
2023/09/29 11:44:37;;;;;;;;;;;;;;;25.34;49.10;101175.09;7397563;19;1570;-37
2023/09/29 11:47:05;;;;;;;;;;;;;;;25.29;49.06;101161.25;7400414;19;1324;-37
2023/09/29 11:49:34;;;;;;;;;;;;;;;25.32;49.27;101168.16;7399269;19;1609;-37
2023/09/29 11:52:03;;;;;;;;;;;;;;;25.28;49.08;101169.53;7397491;19;1855;-37
2023/09/29 11:54:31;;;;;;;;;;;;;;;25.29;49.10;101165.81;7398894;19;1332;-37
2023/09/29 11:56:59;;;;;;;;;;;;;;;25.32;49.17;101144.66;7399864;19;1491;-37
2023/09/29 11:59:27;;;;;;;;;;;;;;;25.38;48.88;101151.25;7397686;19;1527;-37
2023/09/29 12:01:58;;;;;;;;;;;;;;;25.32;49.80;101158.19;7395321;19;1511;-37
2023/09/29 12:04:30;;;;;;;;;;;;;;;25.48;48.84;101149.22;7389846;19;1630;-37
2023/09/29 12:06:58;;;;;;;;;;;;;;;25.45;49.44;101143.31;7397529;19;1569;-37
2023/09/29 12:09:26;;;;;;;;;;;;;;;25.36;49.23;101140.59;7398000;19;1658;-37
2023/09/29 12:11:55;;;;;;;;;;;;;;;25.57;48.83;101136.53;7396782;19;1840;-37
2023/09/29 12:14:23;;;;;;;;;;;;;;;25.49;48.75;101147.38;7399455;19;1681;-37
2023/09/29 12:16:53;;;;;;;;;;;;;;;25.37;49.17;101146.88;7401202;19;1132;-37
2023/09/29 12:19:24;;;;;;;;;;;;;;;25.60;48.72;101145.19;7395815;19;1625;-37
2023/09/29 12:21:52;;;;;;;;;;;;;;;25.65;48.17;101139.25;7399516;19;1807;-37
2023/09/29 12:24:21;;;;;;;;;;;;;;;25.66;48.21;101127.38;7398495;19;1434;-37
2023/09/29 12:26:49;;;;;;;;;;;;;;;25.61;48.30;101132.47;7400498;19;1550;-36
2023/09/29 12:29:17;;;;;;;;;;;;;;;25.57;48.51;101131.13;7398292;19;1340;-37
2023/09/29 12:31:46;;;;;;;;;;;;;;;25.59;48.50;101148.06;7397304;19;1837;-37
2023/09/29 12:34:15;;;;;;;;;;;;;;;25.45;48.71;101135.19;7382272;19;1351;-37
2023/09/29 12:36:46;;;;;;;;;;;;;;;25.48;48.80;101140.25;7398059;19;1665;-37
2023/09/29 12:39:15;;;;;;;;;;;;;;;25.60;48.21;101133.47;7397843;19;1296;-37
2023/09/29 12:41:43;;;;;;;;;;;;;;;25.41;48.74;101126.56;7400184;19;1600;-37
2023/09/29 12:44:12;;;;;;;;;;;;;;;25.24;49.11;101125.69;7397035;19;1391;-37
2023/09/29 12:46:40;;;;;;;;;;;;;;;25.17;49.47;101114.69;7397761;19;1749;-37
2023/09/29 12:49:08;;;;;;;;;;;;;;;25.10;49.18;101115.50;7397607;19;1699;-37
2023/09/29 12:51:37;;;;;;;;;;;;;;;25.04;49.60;101119.72;7397456;19;1851;-37
2023/09/29 12:54:08;;;;;;;;;;;;;;;25.10;49.34;101118.22;7397867;19;1711;-37
2023/09/29 12:56:37;;;;;;;;;;;;;;;25.47;48.65;101114.22;7396075;19;1491;-37